sensor_id;sensor_type;location;lat;lon;timestamp;pressure;altitude;pressure_sealevel;temperature;humidity
65329;BME280;51941;52.210;5.158;2023-04-28T00:02:26;101355.63;;;9.69;62.04
65329;BME280;51941;52.210;5.158;2023-04-28T00:04:53;101345.06;;;9.69;62.17
65329;BME280;51941;52.210;5.158;2023-04-28T00:07:19;101343.84;;;9.72;61.92
65329;BME280;51941;52.210;5.158;2023-04-28T00:09:46;101337.53;;;9.73;61.90
65329;BME280;51941;52.210;5.158;2023-04-28T00:12:13;101326.16;;;9.72;61.74
65329;BME280;51941;52.210;5.158;2023-04-28T00:14:41;101322.69;;;9.72;61.44
65329;BME280;51941;52.210;5.158;2023-04-28T00:17:07;101311.50;;;9.70;61.12
65329;BME280;51941;52.210;5.158;2023-04-28T00:19:35;101306.28;;;9.63;61.11
65329;BME280;51941;52.210;5.158;2023-04-28T00:22:03;101312.94;;;9.66;60.75
65329;BME280;51941;52.210;5.158;2023-04-28T00:24:30;101302.97;;;9.68;60.47
65329;BME280;51941;52.210;5.158;2023-04-28T00:26:58;101300.34;;;9.68;60.18
65329;BME280;51941;52.210;5.158;2023-04-28T00:29:27;101300.34;;;9.68;60.02
65329;BME280;51941;52.210;5.158;2023-04-28T00:31:55;101289.56;;;9.69;59.87
65329;BME280;51941;52.210;5.158;2023-04-28T00:34:21;101286.09;;;9.69;59.62
65329;BME280;51941;52.210;5.158;2023-04-28T00:36:48;101300.13;;;9.69;59.36
65329;BME280;51941;52.210;5.158;2023-04-28T00:39:15;101293.22;;;9.68;59.25
65329;BME280;51941;52.210;5.158;2023-04-28T00:41:42;101289.56;;;9.69;58.93
65329;BME280;51941;52.210;5.158;2023-04-28T00:44:09;101286.91;;;9.69;59.01
65329;BME280;51941;52.210;5.158;2023-04-28T00:46:36;101287.94;;;9.68;58.93
65329;BME280;51941;52.210;5.158;2023-04-28T00:49:04;101283.47;;;9.69;58.72
65329;BME280;51941;52.210;5.158;2023-04-28T00:51:31;101271.25;;;9.68;58.73
65329;BME280;51941;52.210;5.158;2023-04-28T00:53:58;101279.59;;;9.71;58.63
65329;BME280;51941;52.210;5.158;2023-04-28T00:56:25;101277.97;;;9.70;58.82
65329;BME280;51941;52.210;5.158;2023-04-28T00:58:55;101273.84;;;9.74;59.12
65329;BME280;51941;52.210;5.158;2023-04-28T01:01:22;101262.09;;;9.70;59.06
65329;BME280;51941;52.210;5.158;2023-04-28T01:03:48;101244.19;;;9.72;59.45
65329;BME280;51941;52.210;5.158;2023-04-28T01:06:18;101249.50;;;9.72;59.33
65329;BME280;51941;52.210;5.158;2023-04-28T01:08:48;101250.13;;;9.68;59.94
65329;BME280;51941;52.210;5.158;2023-04-28T01:11:16;101245.63;;;9.68;60.38
65329;BME280;51941;52.210;5.158;2023-04-28T01:14:05;101253.56;;;9.68;59.00
65329;BME280;51941;52.210;5.158;2023-04-28T01:16:35;101260.09;;;9.66;59.34
65329;BME280;51941;52.210;5.158;2023-04-28T01:19:06;101259.06;;;9.67;59.00
65329;BME280;51941;52.210;5.158;2023-04-28T01:21:36;101245.84;;;9.67;59.30
65329;BME280;51941;52.210;5.158;2023-04-28T01:24:14;101242.19;;;9.68;58.92
65329;BME280;51941;52.210;5.158;2023-04-28T01:26:42;101241.59;;;9.66;58.37
65329;BME280;51941;52.210;5.158;2023-04-28T01:29:09;101247.69;;;9.66;57.88
65329;BME280;51941;52.210;5.158;2023-04-28T01:31:35;101237.09;;;9.66;58.26
65329;BME280;51941;52.210;5.158;2023-04-28T01:34:02;101232.28;;;9.63;58.79
65329;BME280;51941;52.210;5.158;2023-04-28T01:36:29;101225.97;;;9.64;58.75
65329;BME280;51941;52.210;5.158;2023-04-28T01:38:57;101224.34;;;9.63;58.98
65329;BME280;51941;52.210;5.158;2023-04-28T01:41:25;101218.25;;;9.63;59.18
65329;BME280;51941;52.210;5.158;2023-04-28T01:43:52;101213.97;;;9.62;59.85
65329;BME280;51941;52.210;5.158;2023-04-28T01:46:18;101205.44;;;9.60;60.01
65329;BME280;51941;52.210;5.158;2023-04-28T01:48:45;101208.91;;;9.60;60.19
65329;BME280;51941;52.210;5.158;2023-04-28T01:51:12;101207.88;;;9.61;60.62
65329;BME280;51941;52.210;5.158;2023-04-28T01:53:38;101199.78;;;9.56;60.59
65329;BME280;51941;52.210;5.158;2023-04-28T01:56:05;101200.16;;;9.60;60.76
65329;BME280;51941;52.210;5.158;2023-04-28T01:58:34;101196.09;;;9.57;61.21
65329;BME280;51941;52.210;5.158;2023-04-28T02:01:01;101200.56;;;9.56;61.37
65329;BME280;51941;52.210;5.158;2023-04-28T02:03:28;101201.03;;;9.53;61.78
65329;BME280;51941;52.210;5.158;2023-04-28T02:05:55;101203.06;;;9.51;62.20
65329;BME280;51941;52.210;5.158;2023-04-28T02:08:21;101195.56;;;9.48;62.21
65329;BME280;51941;52.210;5.158;2023-04-28T02:10:50;101192.75;;;9.43;62.58
65329;BME280;51941;52.210;5.158;2023-04-28T02:13:17;101197.84;;;9.45;62.65
65329;BME280;51941;52.210;5.158;2023-04-28T02:15:45;101187.91;;;9.40;63.25
65329;BME280;51941;52.210;5.158;2023-04-28T02:18:12;101191.41;;;9.34;63.71
65329;BME280;51941;52.210;5.158;2023-04-28T02:20:39;101177.97;;;9.36;63.96
65329;BME280;51941;52.210;5.158;2023-04-28T02:23:07;101185.69;;;9.37;64.08
65329;BME280;51941;52.210;5.158;2023-04-28T02:25:33;101171.88;;;9.35;64.38
65329;BME280;51941;52.210;5.158;2023-04-28T02:28:00;101182.66;;;9.34;64.52
65329;BME280;51941;52.210;5.158;2023-04-28T02:30:27;101182.28;;;9.30;65.31
65329;BME280;51941;52.210;5.158;2023-04-28T02:32:56;101172.31;;;9.32;65.30
65329;BME280;51941;52.210;5.158;2023-04-28T02:35:24;101170.69;;;9.31;65.59
65329;BME280;51941;52.210;5.158;2023-04-28T02:37:51;101161.59;;;9.27;65.96
65329;BME280;51941;52.210;5.158;2023-04-28T02:40:18;101157.94;;;9.28;66.35
65329;BME280;51941;52.210;5.158;2023-04-28T02:42:44;101160.31;;;9.30;66.57
65329;BME280;51941;52.210;5.158;2023-04-28T02:45:11;101153.66;;;9.27;66.78
65329;BME280;51941;52.210;5.158;2023-04-28T02:47:38;101157.31;;;9.26;67.04
65329;BME280;51941;52.210;5.158;2023-04-28T02:50:08;101156.50;;;9.26;67.14
65329;BME280;51941;52.210;5.158;2023-04-28T02:52:34;101155.28;;;9.28;67.39
65329;BME280;51941;52.210;5.158;2023-04-28T02:55:01;101143.91;;;9.28;67.79
65329;BME280;51941;52.210;5.158;2023-04-28T02:57:29;101137.81;;;9.27;67.84
65329;BME280;51941;52.210;5.158;2023-04-28T02:59:56;101125.44;;;9.21;68.17
65329;BME280;51941;52.210;5.158;2023-04-28T03:02:26;101120.75;;;9.23;68.72
65329;BME280;51941;52.210;5.158;2023-04-28T03:04:52;101122.78;;;9.21;69.16
65329;BME280;51941;52.210;5.158;2023-04-28T03:07:20;101107.78;;;9.15;70.19
65329;BME280;51941;52.210;5.158;2023-04-28T03:09:47;101107.19;;;9.13;71.03
65329;BME280;51941;52.210;5.158;2023-04-28T03:12:14;101114.75;;;9.09;71.79
65329;BME280;51941;52.210;5.158;2023-04-28T03:14:41;101113.94;;;9.09;72.07
65329;BME280;51941;52.210;5.158;2023-04-28T03:17:08;101104.81;;;9.05;72.13
65329;BME280;51941;52.210;5.158;2023-04-28T03:19:35;101109.47;;;9.03;72.29
65329;BME280;51941;52.210;5.158;2023-04-28T03:22:02;101100.13;;;9.07;72.42
65329;BME280;51941;52.210;5.158;2023-04-28T03:24:32;101090.78;;;9.04;72.50
65329;BME280;51941;52.210;5.158;2023-04-28T03:26:58;101077.44;;;8.99;73.36
65329;BME280;51941;52.210;5.158;2023-04-28T03:29:26;101071.13;;;9.00;73.09
65329;BME280;51941;52.210;5.158;2023-04-28T03:31:53;101073.97;;;8.99;73.26
65329;BME280;51941;52.210;5.158;2023-04-28T03:34:20;101068.91;;;8.97;73.40
65329;BME280;51941;52.210;5.158;2023-04-28T03:36:46;101067.09;;;8.98;73.48
65329;BME280;51941;52.210;5.158;2023-04-28T03:39:22;101069.94;;;8.96;73.60
65329;BME280;51941;52.210;5.158;2023-04-28T03:41:50;101063.84;;;8.96;73.98
65329;BME280;51941;52.210;5.158;2023-04-28T03:44:35;101054.91;;;8.97;73.61
65329;BME280;51941;52.210;5.158;2023-04-28T03:47:02;101061.00;;;8.97;73.82
65329;BME280;51941;52.210;5.158;2023-04-28T03:49:29;101060.19;;;8.97;74.02
65329;BME280;51941;52.210;5.158;2023-04-28T03:51:56;101054.31;;;8.95;73.98
65329;BME280;51941;52.210;5.158;2023-04-28T03:54:23;101057.53;;;8.97;73.12
65329;BME280;51941;52.210;5.158;2023-04-28T03:56:51;101053.06;;;8.97;73.12
65329;BME280;51941;52.210;5.158;2023-04-28T03:59:18;101049.63;;;8.97;72.95
65329;BME280;51941;52.210;5.158;2023-04-28T04:01:45;101040.88;;;8.96;72.86
65329;BME280;51941;52.210;5.158;2023-04-28T04:04:11;101046.78;;;8.98;72.08
65329;BME280;51941;52.210;5.158;2023-04-28T04:06:38;101040.47;;;8.99;72.21
65329;BME280;51941;52.210;5.158;2023-04-28T04:09:05;101044.22;;;8.85;72.66
65329;BME280;51941;52.210;5.158;2023-04-28T04:11:32;101037.16;;;8.79;73.31
65329;BME280;51941;52.210;5.158;2023-04-28T04:14:00;101035.72;;;8.83;73.39
65329;BME280;51941;52.210;5.158;2023-04-28T04:16:28;101031.81;;;8.86;73.45
65329;BME280;51941;52.210;5.158;2023-04-28T04:18:55;101028.38;;;8.85;72.26
65329;BME280;51941;52.210;5.158;2023-04-28T04:21:29;101029.56;;;8.89;72.16
65329;BME280;51941;52.210;5.158;2023-04-28T04:23:56;101027.09;;;8.94;72.27
65329;BME280;51941;52.210;5.158;2023-04-28T04:26:23;101032.06;;;9.09;71.01
65329;BME280;51941;52.210;5.158;2023-04-28T04:28:50;101030.25;;;9.09;70.58
65329;BME280;51941;52.210;5.158;2023-04-28T04:31:18;101029.78;;;9.12;70.78
65329;BME280;51941;52.210;5.158;2023-04-28T04:33:46;101032.22;;;9.14;70.62
65329;BME280;51941;52.210;5.158;2023-04-28T04:36:14;101018.41;;;9.18;70.48
65329;BME280;51941;52.210;5.158;2023-04-28T04:38:40;101014.16;;;9.17;70.20
65329;BME280;51941;52.210;5.158;2023-04-28T04:41:14;101016.34;;;9.21;69.76
65329;BME280;51941;52.210;5.158;2023-04-28T04:43:42;101018.94;;;9.27;69.55
65329;BME280;51941;52.210;5.158;2023-04-28T04:46:09;101013.97;;;9.37;68.79
65329;BME280;51941;52.210;5.158;2023-04-28T04:48:37;101007.09;;;9.54;67.82
65329;BME280;51941;52.210;5.158;2023-04-28T04:51:03;101004.59;;;9.60;67.43
65329;BME280;51941;52.210;5.158;2023-04-28T04:53:31;101005.78;;;9.64;67.15
65329;BME280;51941;52.210;5.158;2023-04-28T04:55:58;100996.59;;;9.66;67.20
65329;BME280;51941;52.210;5.158;2023-04-28T04:58:25;100997.31;;;9.73;67.21
65329;BME280;51941;52.210;5.158;2023-04-28T05:01:10;101005.63;;;9.77;66.86
65329;BME280;51941;52.210;5.158;2023-04-28T05:03:38;101003.78;;;9.77;66.82
65329;BME280;51941;52.210;5.158;2023-04-28T05:06:05;100999.31;;;9.78;67.11
65329;BME280;51941;52.210;5.158;2023-04-28T05:08:39;100998.63;;;9.82;66.92
65329;BME280;51941;52.210;5.158;2023-04-28T05:11:06;100997.03;;;9.81;67.47
65329;BME280;51941;52.210;5.158;2023-04-28T05:13:33;101000.72;;;9.80;67.43
65329;BME280;51941;52.210;5.158;2023-04-28T05:16:05;101000.63;;;9.87;67.37
65329;BME280;51941;52.210;5.158;2023-04-28T05:18:44;101009.78;;;9.84;67.57
65329;BME280;51941;52.210;5.158;2023-04-28T05:21:10;101020.53;;;9.89;67.93
65329;BME280;51941;52.210;5.158;2023-04-28T05:23:37;101028.38;;;9.96;67.81
65329;BME280;51941;52.210;5.158;2023-04-28T05:26:04;101027.94;;;9.99;68.08
65329;BME280;51941;52.210;5.158;2023-04-28T05:28:31;101026.88;;;10.00;68.00
65329;BME280;51941;52.210;5.158;2023-04-28T05:31:00;101035.22;;;10.04;69.50
65329;BME280;51941;52.210;5.158;2023-04-28T05:33:28;101031.75;;;10.03;70.86
65329;BME280;51941;52.210;5.158;2023-04-28T05:35:57;101031.16;;;10.01;72.93
65329;BME280;51941;52.210;5.158;2023-04-28T05:38:24;101017.59;;;9.98;75.84
65329;BME280;51941;52.210;5.158;2023-04-28T05:40:53;101005.69;;;9.88;78.11
65329;BME280;51941;52.210;5.158;2023-04-28T05:43:19;101003.56;;;9.79;81.75
65329;BME280;51941;52.210;5.158;2023-04-28T05:45:47;101010.53;;;9.73;83.23
65329;BME280;51941;52.210;5.158;2023-04-28T05:48:14;101000.50;;;9.64;87.56
65329;BME280;51941;52.210;5.158;2023-04-28T05:50:41;100992.31;;;9.65;86.99
65329;BME280;51941;52.210;5.158;2023-04-28T05:53:10;100992.41;;;9.59;88.58
65329;BME280;51941;52.210;5.158;2023-04-28T05:55:37;100983.88;;;9.56;90.94
65329;BME280;51941;52.210;5.158;2023-04-28T05:58:04;100982.94;;;9.51;93.52
65329;BME280;51941;52.210;5.158;2023-04-28T06:00:31;100970.81;;;9.43;95.12
65329;BME280;51941;52.210;5.158;2023-04-28T06:02:59;100950.56;;;9.37;97.48
65329;BME280;51941;52.210;5.158;2023-04-28T06:05:26;100938.94;;;9.38;99.58
65329;BME280;51941;52.210;5.158;2023-04-28T06:07:54;100944.47;;;9.37;100.00
65329;BME280;51941;52.210;5.158;2023-04-28T06:10:24;100944.03;;;9.40;100.00
65329;BME280;51941;52.210;5.158;2023-04-28T06:12:51;100943.59;;;9.43;100.00
65329;BME280;51941;52.210;5.158;2023-04-28T06:15:17;100954.28;;;9.48;100.00
65329;BME280;51941;52.210;5.158;2023-04-28T06:17:44;100950.53;;;9.55;100.00
65329;BME280;51941;52.210;5.158;2023-04-28T06:20:11;100950.28;;;9.64;100.00
65329;BME280;51941;52.210;5.158;2023-04-28T06:22:39;100963.75;;;9.74;100.00
65329;BME280;51941;52.210;5.158;2023-04-28T06:25:06;100965.66;;;9.85;100.00
65329;BME280;51941;52.210;5.158;2023-04-28T06:27:40;100963.88;;;9.97;100.00
65329;BME280;51941;52.210;5.158;2023-04-28T06:30:07;100966.44;;;10.04;100.00
65329;BME280;51941;52.210;5.158;2023-04-28T06:32:34;100982.00;;;10.12;100.00
65329;BME280;51941;52.210;5.158;2023-04-28T06:35:01;100982.22;;;10.10;100.00
65329;BME280;51941;52.210;5.158;2023-04-28T06:37:28;100969.41;;;10.25;100.00
65329;BME280;51941;52.210;5.158;2023-04-28T06:39:57;100980.94;;;10.31;100.00
65329;BME280;51941;52.210;5.158;2023-04-28T06:42:23;100987.97;;;10.37;100.00
65329;BME280;51941;52.210;5.158;2023-04-28T06:44:58;100982.56;;;10.44;100.00
65329;BME280;51941;52.210;5.158;2023-04-28T06:47:26;100970.88;;;10.51;100.00
65329;BME280;51941;52.210;5.158;2023-04-28T06:49:52;100964.19;;;10.49;100.00
65329;BME280;51941;52.210;5.158;2023-04-28T06:52:19;100966.84;;;10.49;100.00
65329;BME280;51941;52.210;5.158;2023-04-28T06:54:46;100954.66;;;10.59;100.00
65329;BME280;51941;52.210;5.158;2023-04-28T06:57:13;100955.69;;;10.70;100.00
65329;BME280;51941;52.210;5.158;2023-04-28T06:59:40;100957.69;;;10.75;100.00
65329;BME280;51941;52.210;5.158;2023-04-28T07:02:09;100961.88;;;10.94;100.00
65329;BME280;51941;52.210;5.158;2023-04-28T07:04:36;100965.56;;;11.04;100.00
65329;BME280;51941;52.210;5.158;2023-04-28T07:07:03;100963.13;;;11.15;100.00
65329;BME280;51941;52.210;5.158;2023-04-28T07:09:32;100963.34;;;11.25;100.00
65329;BME280;51941;52.210;5.158;2023-04-28T07:11:59;100969.91;;;11.34;100.00
65329;BME280;51941;52.210;5.158;2023-04-28T07:14:26;100970.59;;;11.41;100.00
65329;BME280;51941;52.210;5.158;2023-04-28T07:16:52;100964.59;;;11.46;100.00
65329;BME280;51941;52.210;5.158;2023-04-28T07:19:20;100963.22;;;11.55;100.00
65329;BME280;51941;52.210;5.158;2023-04-28T07:21:47;100956.19;;;11.49;100.00
65329;BME280;51941;52.210;5.158;2023-04-28T07:24:14;100956.97;;;11.61;100.00
65329;BME280;51941;52.210;5.158;2023-04-28T07:26:40;100957.91;;;11.43;100.00
65329;BME280;51941;52.210;5.158;2023-04-28T07:29:07;100953.09;;;11.40;100.00
65329;BME280;51941;52.210;5.158;2023-04-28T07:31:34;100955.03;;;11.56;100.00
65329;BME280;51941;52.210;5.158;2023-04-28T07:34:01;100938.84;;;11.69;100.00
65329;BME280;51941;52.210;5.158;2023-04-28T07:36:29;100937.81;;;11.70;100.00
65329;BME280;51941;52.210;5.158;2023-04-28T07:38:58;100959.22;;;11.80;100.00
65329;BME280;51941;52.210;5.158;2023-04-28T07:41:26;100954.34;;;11.89;100.00
65329;BME280;51941;52.210;5.158;2023-04-28T07:43:53;100947.88;;;11.97;100.00
65329;BME280;51941;52.210;5.158;2023-04-28T07:46:20;100952.78;;;12.05;100.00
65329;BME280;51941;52.210;5.158;2023-04-28T07:48:48;100943.63;;;12.12;100.00
65329;BME280;51941;52.210;5.158;2023-04-28T07:51:14;100939.13;;;12.25;100.00
65329;BME280;51941;52.210;5.158;2023-04-28T07:53:43;100943.47;;;12.31;100.00
65329;BME280;51941;52.210;5.158;2023-04-28T07:56:09;100944.22;;;12.43;100.00
65329;BME280;51941;52.210;5.158;2023-04-28T07:58:36;100939.88;;;12.53;100.00
65329;BME280;51941;52.210;5.158;2023-04-28T08:01:03;100936.25;;;12.60;100.00
65329;BME280;51941;52.210;5.158;2023-04-28T08:03:30;100944.94;;;12.55;100.00
65329;BME280;51941;52.210;5.158;2023-04-28T08:05:57;100934.47;;;12.65;100.00
65329;BME280;51941;52.210;5.158;2023-04-28T08:08:24;100939.31;;;12.68;100.00
65329;BME280;51941;52.210;5.158;2023-04-28T08:10:52;100937.69;;;12.84;100.00
65329;BME280;51941;52.210;5.158;2023-04-28T08:13:19;100942.59;;;12.75;100.00
65329;BME280;51941;52.210;5.158;2023-04-28T08:15:46;100940.69;;;12.71;100.00
65329;BME280;51941;52.210;5.158;2023-04-28T08:18:13;100936.81;;;12.78;100.00
65329;BME280;51941;52.210;5.158;2023-04-28T08:20:39;100940.81;;;12.81;100.00
65329;BME280;51941;52.210;5.158;2023-04-28T08:23:06;100947.50;;;12.83;100.00
65329;BME280;51941;52.210;5.158;2023-04-28T08:25:33;100947.84;;;12.87;100.00
65329;BME280;51941;52.210;5.158;2023-04-28T08:28:01;100948.88;;;12.86;100.00
65329;BME280;51941;52.210;5.158;2023-04-28T08:30:30;100956.91;;;12.91;100.00
65329;BME280;51941;52.210;5.158;2023-04-28T08:32:58;100948.47;;;12.94;100.00
65329;BME280;51941;52.210;5.158;2023-04-28T08:35:24;100949.84;;;12.97;100.00
65329;BME280;51941;52.210;5.158;2023-04-28T08:37:51;100955.47;;;13.00;100.00
65329;BME280;51941;52.210;5.158;2023-04-28T08:40:18;100953.44;;;13.07;100.00
65329;BME280;51941;52.210;5.158;2023-04-28T08:42:46;100952.31;;;13.20;100.00
65329;BME280;51941;52.210;5.158;2023-04-28T08:45:14;100954.47;;;13.23;100.00
65329;BME280;51941;52.210;5.158;2023-04-28T08:47:41;100953.72;;;13.27;100.00
65329;BME280;51941;52.210;5.158;2023-04-28T08:50:11;100941.81;;;13.30;100.00
65329;BME280;51941;52.210;5.158;2023-04-28T08:52:40;100942.28;;;13.27;100.00
65329;BME280;51941;52.210;5.158;2023-04-28T08:55:09;100935.38;;;13.26;100.00
65329;BME280;51941;52.210;5.158;2023-04-28T08:57:38;100934.25;;;13.22;100.00
65329;BME280;51941;52.210;5.158;2023-04-28T09:00:05;100940.69;;;13.26;100.00
65329;BME280;51941;52.210;5.158;2023-04-28T09:02:34;100934.66;;;13.30;100.00
65329;BME280;51941;52.210;5.158;2023-04-28T09:05:02;100930.75;;;13.38;100.00
65329;BME280;51941;52.210;5.158;2023-04-28T09:07:29;100929.72;;;13.39;100.00
65329;BME280;51941;52.210;5.158;2023-04-28T09:10:16;100936.56;;;13.35;100.00
65329;BME280;51941;52.210;5.158;2023-04-28T09:12:43;100931.97;;;13.30;100.00
65329;BME280;51941;52.210;5.158;2023-04-28T09:15:10;100924.06;;;13.36;100.00
65329;BME280;51941;52.210;5.158;2023-04-28T09:17:48;100932.41;;;13.39;100.00
65329;BME280;51941;52.210;5.158;2023-04-28T09:20:19;100933.56;;;13.48;100.00
65329;BME280;51941;52.210;5.158;2023-04-28T09:22:45;100930.09;;;13.48;100.00
65329;BME280;51941;52.210;5.158;2023-04-28T09:25:13;100933.38;;;13.55;100.00
65329;BME280;51941;52.210;5.158;2023-04-28T09:27:40;100931.69;;;13.71;100.00
65329;BME280;51941;52.210;5.158;2023-04-28T09:30:07;100933.66;;;13.80;100.00
65329;BME280;51941;52.210;5.158;2023-04-28T09:32:35;100931.53;;;13.77;100.00
65329;BME280;51941;52.210;5.158;2023-04-28T09:35:04;100925.19;;;13.83;100.00
65329;BME280;51941;52.210;5.158;2023-04-28T09:37:32;100925.06;;;13.95;100.00
65329;BME280;51941;52.210;5.158;2023-04-28T09:40:05;100918.66;;;13.96;100.00
65329;BME280;51941;52.210;5.158;2023-04-28T09:42:33;100926.19;;;14.04;100.00
65329;BME280;51941;52.210;5.158;2023-04-28T09:45:01;100928.84;;;14.04;100.00
65329;BME280;51941;52.210;5.158;2023-04-28T09:47:28;100929.66;;;14.04;100.00
65329;BME280;51941;52.210;5.158;2023-04-28T09:49:55;100923.94;;;14.18;100.00
65329;BME280;51941;52.210;5.158;2023-04-28T09:52:24;100924.97;;;14.12;100.00
65329;BME280;51941;52.210;5.158;2023-04-28T09:54:52;100920.53;;;14.22;100.00
65329;BME280;51941;52.210;5.158;2023-04-28T09:57:20;100914.47;;;14.32;100.00
65329;BME280;51941;52.210;5.158;2023-04-28T09:59:48;100922.00;;;14.40;100.00
65329;BME280;51941;52.210;5.158;2023-04-28T10:02:16;100923.16;;;14.49;100.00
65329;BME280;51941;52.210;5.158;2023-04-28T10:04:44;100917.91;;;14.54;100.00
65329;BME280;51941;52.210;5.158;2023-04-28T10:07:11;100915.97;;;14.50;100.00
65329;BME280;51941;52.210;5.158;2023-04-28T10:09:39;100912.44;;;14.71;100.00
65329;BME280;51941;52.210;5.158;2023-04-28T10:12:08;100915.84;;;14.66;100.00
65329;BME280;51941;52.210;5.158;2023-04-28T10:17:03;100911.41;;;14.77;100.00
65329;BME280;51941;52.210;5.158;2023-04-28T10:19:31;100914.66;;;14.84;100.00
65329;BME280;51941;52.210;5.158;2023-04-28T10:22:07;100918.66;;;14.82;100.00
65329;BME280;51941;52.210;5.158;2023-04-28T10:24:55;100915.44;;;14.85;100.00
65329;BME280;51941;52.210;5.158;2023-04-28T10:27:28;100915.19;;;14.81;100.00
65329;BME280;51941;52.210;5.158;2023-04-28T10:30:09;100917.63;;;14.88;100.00
65329;BME280;51941;52.210;5.158;2023-04-28T10:32:36;100917.63;;;14.88;100.00
65329;BME280;51941;52.210;5.158;2023-04-28T10:35:40;100915.50;;;14.90;100.00
65329;BME280;51941;52.210;5.158;2023-04-28T10:38:09;100913.38;;;14.92;100.00
65329;BME280;51941;52.210;5.158;2023-04-28T10:40:39;100912.25;;;14.83;100.00
65329;BME280;51941;52.210;5.158;2023-04-28T10:43:06;100918.97;;;14.90;100.00
65329;BME280;51941;52.210;5.158;2023-04-28T10:46:02;100912.34;;;14.98;100.00
65329;BME280;51941;52.210;5.158;2023-04-28T10:48:53;100915.56;;;15.00;100.00
65329;BME280;51941;52.210;5.158;2023-04-28T10:51:30;100908.31;;;14.95;100.00
65329;BME280;51941;52.210;5.158;2023-04-28T10:54:12;100919.50;;;14.92;100.00
65329;BME280;51941;52.210;5.158;2023-04-28T10:57:18;100920.41;;;15.08;100.00
65329;BME280;51941;52.210;5.158;2023-04-28T10:59:46;100917.53;;;15.19;100.00
65329;BME280;51941;52.210;5.158;2023-04-28T11:02:38;100913.84;;;15.31;100.00
65329;BME280;51941;52.210;5.158;2023-04-28T11:05:13;100916.28;;;15.37;100.00
65329;BME280;51941;52.210;5.158;2023-04-28T11:07:40;100915.50;;;15.42;100.00
65329;BME280;51941;52.210;5.158;2023-04-28T11:13:33;100911.94;;;15.78;100.00
65329;BME280;51941;52.210;5.158;2023-04-28T11:16:03;100902.59;;;15.86;100.00
65329;BME280;51941;52.210;5.158;2023-04-28T11:18:39;100897.28;;;15.86;100.00
65329;BME280;51941;52.210;5.158;2023-04-28T11:21:13;100898.63;;;15.88;100.00
65329;BME280;51941;52.210;5.158;2023-04-28T11:23:41;100898.88;;;15.92;100.00
65329;BME280;51941;52.210;5.158;2023-04-28T11:26:08;100888.97;;;15.82;100.00
65329;BME280;51941;52.210;5.158;2023-04-28T11:28:37;100895.66;;;15.90;100.00
65329;BME280;51941;52.210;5.158;2023-04-28T11:31:12;100895.66;;;15.90;100.00
65329;BME280;51941;52.210;5.158;2023-04-28T11:33:44;100893.00;;;15.85;100.00
65329;BME280;51941;52.210;5.158;2023-04-28T11:36:21;100891.41;;;15.94;100.00
65329;BME280;51941;52.210;5.158;2023-04-28T11:38:48;100898.91;;;15.97;100.00
65329;BME280;51941;52.210;5.158;2023-04-28T11:41:15;100900.47;;;15.88;100.00
65329;BME280;51941;52.210;5.158;2023-04-28T11:43:43;100902.59;;;15.91;100.00
65329;BME280;51941;52.210;5.158;2023-04-28T11:46:15;100905.81;;;15.88;100.00
65329;BME280;51941;52.210;5.158;2023-04-28T11:48:42;100895.34;;;15.71;100.00
65329;BME280;51941;52.210;5.158;2023-04-28T11:51:08;100907.63;;;15.72;100.00
65329;BME280;51941;52.210;5.158;2023-04-28T11:53:42;100904.69;;;15.74;100.00
65329;BME280;51941;52.210;5.158;2023-04-28T11:56:09;100903.09;;;15.73;100.00
65329;BME280;51941;52.210;5.158;2023-04-28T11:58:38;100911.66;;;15.70;100.00
65329;BME280;51941;52.210;5.158;2023-04-28T12:01:09;100902.84;;;15.69;100.00
65329;BME280;51941;52.210;5.158;2023-04-28T12:03:46;100916.16;;;15.64;100.00
65329;BME280;51941;52.210;5.158;2023-04-28T12:06:16;100919.03;;;15.52;100.00
65329;BME280;51941;52.210;5.158;2023-04-28T12:08:42;100921.94;;;15.51;100.00
65329;BME280;51941;52.210;5.158;2023-04-28T12:11:10;100916.38;;;15.58;100.00
65329;BME280;51941;52.210;5.158;2023-04-28T12:13:38;100921.69;;;15.58;100.00
65329;BME280;51941;52.210;5.158;2023-04-28T12:16:06;100914.25;;;15.60;100.00
65329;BME280;51941;52.210;5.158;2023-04-28T12:18:35;100915.28;;;15.53;100.00
65329;BME280;51941;52.210;5.158;2023-04-28T12:21:03;100919.03;;;15.58;100.00
65329;BME280;51941;52.210;5.158;2023-04-28T12:23:31;100917.44;;;15.56;100.00
65329;BME280;51941;52.210;5.158;2023-04-28T12:25:58;100917.63;;;15.45;100.00
65329;BME280;51941;52.210;5.158;2023-04-28T12:28:35;100927.88;;;15.63;100.00
65329;BME280;51941;52.210;5.158;2023-04-28T12:31:03;100927.13;;;15.68;100.00
65329;BME280;51941;52.210;5.158;2023-04-28T12:33:30;100923.56;;;15.57;100.00
65329;BME280;51941;52.210;5.158;2023-04-28T12:36:03;100927.59;;;15.60;100.00
65329;BME280;51941;52.210;5.158;2023-04-28T12:38:31;100926.31;;;15.67;100.00
65329;BME280;51941;52.210;5.158;2023-04-28T12:40:58;100925.00;;;15.80;100.00
65329;BME280;51941;52.210;5.158;2023-04-28T12:43:24;100929.84;;;15.88;100.00
65329;BME280;51941;52.210;5.158;2023-04-28T12:45:53;100927.97;;;15.88;100.00
65329;BME280;51941;52.210;5.158;2023-04-28T12:48:20;100932.78;;;15.86;100.00
65329;BME280;51941;52.210;5.158;2023-04-28T12:50:48;100926.88;;;15.89;100.00
65329;BME280;51941;52.210;5.158;2023-04-28T12:53:16;100922.34;;;15.90;100.00
65329;BME280;51941;52.210;5.158;2023-04-28T12:55:42;100923.97;;;15.86;100.00
65329;BME280;51941;52.210;5.158;2023-04-28T12:58:09;100928.78;;;15.94;100.00
65329;BME280;51941;52.210;5.158;2023-04-28T13:00:36;100928.28;;;15.97;100.00
65329;BME280;51941;52.210;5.158;2023-04-28T13:03:02;100930.38;;;16.00;100.00
65329;BME280;51941;52.210;5.158;2023-04-28T13:05:30;100930.38;;;15.85;100.00